createdAt,value
2023-02-05T00:02:25.703Z,7.35
2023-02-05T00:04:54.444Z,9.25
2023-02-05T00:07:22.608Z,7.95
2023-02-05T00:09:51.031Z,8.23
2023-02-05T00:12:19.183Z,8.32
2023-02-05T00:14:47.710Z,6.05
2023-02-05T00:17:17.362Z,4.30
2023-02-05T00:19:46.087Z,3.72
2023-02-05T00:22:14.222Z,5.07
2023-02-05T00:24:42.716Z,5.28
2023-02-05T00:27:10.857Z,4.35
2023-02-05T00:29:39.453Z,4.13
2023-02-05T00:32:07.556Z,3.70
2023-02-05T00:34:37.563Z,4.07
2023-02-05T00:37:05.659Z,4.47
2023-02-05T00:39:34.327Z,3.42
2023-02-05T00:42:02.471Z,2.17
2023-02-05T00:44:30.868Z,3.47
2023-02-05T00:46:59.024Z,2.63
2023-02-05T00:49:27.592Z,3.47
2023-02-05T00:51:57.114Z,2.78
2023-02-05T00:54:25.522Z,1.75
2023-02-05T00:56:53.653Z,3.38
2023-02-05T00:59:23.897Z,2.22
2023-02-05T01:01:52.348Z,2.63
2023-02-05T01:04:21.042Z,3.65
2023-02-05T01:06:49.217Z,3.05
2023-02-05T01:09:18.987Z,2.65
2023-02-05T01:11:47.100Z,2.85
2023-02-05T01:14:15.478Z,4.13
2023-02-05T01:16:43.642Z,2.65
2023-02-05T01:19:12.085Z,3.78
2023-02-05T01:21:40.231Z,3.72
2023-02-05T01:24:08.791Z,3.13
2023-02-05T01:26:38.286Z,3.78
2023-02-05T01:29:06.760Z,4.63
2023-02-05T01:31:35.123Z,5.53
2023-02-05T01:34:03.591Z,4.60
2023-02-05T01:36:31.790Z,6.82
2023-02-05T01:39:00.290Z,6.60
2023-02-05T01:41:28.434Z,5.30
2023-02-05T01:44:09.697Z,7.15
2023-02-05T01:46:39.048Z,6.90
2023-02-05T01:49:09.576Z,4.70
2023-02-05T01:51:38.947Z,6.93
2023-02-05T01:54:07.966Z,6.53
2023-02-05T01:56:39.117Z,6.10
2023-02-05T01:59:11.650Z,8.50
2023-02-05T02:04:28.815Z,7.03
2023-02-05T02:06:57.244Z,7.82
2023-02-05T02:09:25.401Z,9.98
2023-02-05T02:11:53.798Z,8.55
2023-02-05T02:14:23.548Z,9.85
2023-02-05T02:16:53.029Z,8.50
2023-02-05T02:19:27.946Z,8.65
2023-02-05T02:22:41.856Z,11.25
2023-02-05T02:25:34.252Z,13.30
2023-02-05T02:28:09.682Z,13.63
2023-02-05T02:30:42.222Z,9.20
2023-02-05T02:33:16.740Z,9.05
2023-02-05T02:35:47.978Z,14.35
2023-02-05T02:38:22.415Z,9.02
2023-02-05T02:40:52.825Z,12.00
2023-02-05T02:43:25.810Z,9.23
2023-02-05T02:45:56.382Z,12.25
2023-02-05T02:48:26.440Z,11.68
2023-02-05T02:50:56.543Z,9.43
2023-02-05T02:53:28.991Z,9.35
2023-02-05T02:55:58.370Z,12.68
2023-02-05T02:58:32.394Z,14.95
2023-02-05T03:01:00.741Z,11.52
2023-02-05T03:03:31.108Z,13.73
2023-02-05T03:05:59.859Z,12.35
2023-02-05T03:08:31.987Z,11.35
2023-02-05T03:11:02.666Z,12.65
2023-02-05T03:13:32.898Z,16.35
2023-02-05T03:16:01.796Z,14.15
2023-02-05T03:18:31.058Z,14.52
2023-02-05T03:21:01.296Z,13.38
2023-02-05T03:23:30.198Z,13.98
2023-02-05T03:25:58.342Z,13.82
2023-02-05T03:28:27.049Z,13.27
2023-02-05T03:31:02.825Z,17.67
2023-02-05T03:33:39.366Z,19.90
2023-02-05T03:36:14.350Z,16.38
2023-02-05T03:38:51.498Z,14.60
2023-02-05T03:41:45.972Z,19.52
2023-02-05T03:44:21.318Z,18.40
2023-02-05T03:46:59.670Z,18.48
2023-02-05T03:49:36.774Z,19.88
2023-02-05T03:52:08.547Z,15.65
2023-02-05T03:54:44.101Z,20.20
2023-02-05T03:57:18.054Z,15.93
2023-02-05T03:59:46.895Z,13.10
2023-02-05T04:02:16.512Z,14.80
2023-02-05T04:04:45.064Z,19.40
2023-02-05T04:07:13.473Z,16.55
2023-02-05T04:09:41.911Z,12.85
2023-02-05T04:12:10.958Z,13.38
2023-02-05T04:14:39.373Z,20.17
2023-02-05T04:17:07.682Z,14.18
2023-02-05T04:19:37.434Z,19.55
2023-02-05T04:22:05.579Z,19.58
2023-02-05T04:24:33.934Z,18.83
2023-02-05T04:27:02.435Z,17.58
2023-02-05T04:29:30.879Z,15.25
2023-02-05T04:31:59.074Z,21.15
2023-02-05T04:34:27.772Z,16.33
2023-02-05T04:36:57.243Z,12.48
2023-02-05T04:39:25.619Z,18.25
2023-02-05T04:41:54.311Z,15.95
2023-02-05T04:44:22.855Z,17.60
2023-02-05T04:46:51.017Z,13.05
2023-02-05T04:49:19.444Z,13.45
2023-02-05T04:51:47.660Z,13.48
2023-02-05T04:54:17.450Z,15.05
2023-02-05T04:56:46.849Z,17.70
2023-02-05T04:59:15.265Z,14.73
2023-02-05T05:01:43.394Z,13.63
2023-02-05T05:04:11.894Z,17.50
2023-02-05T05:06:40.289Z,16.48
2023-02-05T05:09:08.662Z,15.75
2023-02-05T05:11:38.138Z,16.30
2023-02-05T05:14:06.526Z,15.73
2023-02-05T05:16:34.617Z,16.50
2023-02-05T05:19:03.061Z,15.38
2023-02-05T05:21:31.347Z,16.67
2023-02-05T05:23:59.715Z,13.60
2023-02-05T05:26:27.850Z,16.63
2023-02-05T05:28:58.077Z,18.42
2023-02-05T05:31:26.582Z,16.63
2023-02-05T05:33:54.975Z,17.60
2023-02-05T05:36:23.211Z,16.23
2023-02-05T05:38:51.719Z,19.10
2023-02-05T05:41:39.900Z,18.42
2023-02-05T05:44:10.464Z,17.10
2023-02-05T05:46:38.687Z,17.30
2023-02-05T05:49:07.130Z,18.73
2023-02-05T05:51:35.372Z,17.10
2023-02-05T05:54:03.920Z,16.65
2023-02-05T05:56:32.115Z,17.02
2023-02-05T05:59:00.542Z,17.38
2023-02-05T06:01:30.039Z,23.40
2023-02-05T06:03:58.815Z,14.50
2023-02-05T06:06:27.481Z,17.80
2023-02-05T06:08:55.864Z,25.20
2023-02-05T06:11:23.966Z,20.48
2023-02-05T06:13:52.324Z,21.35
2023-02-05T06:16:20.457Z,18.13
2023-02-05T06:18:50.272Z,17.48
2023-02-05T06:21:18.389Z,18.48
2023-02-05T06:23:46.768Z,18.73
2023-02-05T06:26:14.924Z,15.30
2023-02-05T06:28:43.305Z,16.20
2023-02-05T06:31:11.692Z,20.95
2023-02-05T06:33:40.195Z,18.88
2023-02-05T06:36:09.989Z,18.92
2023-02-05T06:38:38.567Z,18.52
2023-02-05T06:41:06.842Z,20.42
2023-02-05T06:43:35.300Z,21.58
2023-02-05T06:46:03.531Z,21.35
2023-02-05T06:48:32.006Z,22.58
2023-02-05T06:51:00.291Z,21.20
2023-02-05T06:53:30.122Z,20.05
2023-02-05T06:55:59.568Z,25.15
2023-02-05T06:58:28.005Z,26.58
2023-02-05T07:00:56.169Z,30.63
2023-02-05T07:03:24.634Z,30.13
2023-02-05T07:05:52.714Z,27.55
2023-02-05T07:08:21.126Z,28.02
2023-02-05T07:10:50.730Z,24.48
2023-02-05T07:13:19.111Z,29.67
2023-02-05T07:15:47.401Z,27.80
2023-02-05T07:18:15.826Z,30.65
2023-02-05T07:20:44.006Z,24.15
2023-02-05T07:23:12.374Z,27.15
2023-02-05T07:25:40.666Z,30.38
2023-02-05T07:28:10.615Z,27.58
2023-02-05T07:30:38.874Z,27.08
2023-02-05T07:33:07.539Z,26.17
2023-02-05T07:35:39.301Z,25.55
2023-02-05T07:38:07.840Z,28.25
2023-02-05T07:40:37.695Z,32.38
2023-02-05T07:43:06.147Z,37.85
2023-02-05T07:45:35.964Z,37.60
2023-02-05T07:48:04.769Z,26.48
2023-02-05T07:50:33.407Z,32.13
2023-02-05T07:53:01.925Z,35.72
2023-02-05T07:55:30.173Z,29.50
2023-02-05T07:57:58.536Z,29.00
2023-02-05T08:00:26.646Z,31.52
2023-02-05T08:02:56.375Z,26.48
2023-02-05T08:05:24.738Z,26.35
2023-02-05T08:07:53.447Z,25.40
2023-02-05T08:10:22.194Z,26.90
2023-02-05T08:12:50.635Z,22.52
2023-02-05T08:15:18.949Z,16.25
2023-02-05T08:17:47.350Z,17.85
2023-02-05T08:20:16.987Z,19.70
2023-02-05T08:22:45.455Z,14.85
2023-02-05T08:25:15.023Z,17.48
2023-02-05T08:27:46.037Z,20.88
2023-02-05T08:30:17.187Z,16.15
2023-02-05T08:32:49.248Z,52.67
2023-02-05T08:35:19.610Z,81.15
2023-02-05T08:37:48.184Z,36.78
2023-02-05T08:40:16.353Z,35.95
2023-02-05T08:42:45.593Z,28.08
2023-02-05T08:45:14.084Z,39.72
2023-02-05T08:47:42.458Z,29.15
2023-02-05T08:50:11.430Z,22.35
2023-02-05T08:52:41.202Z,23.00
2023-02-05T08:55:09.604Z,26.00
2023-02-05T08:57:38.354Z,18.60
2023-02-05T09:00:08.082Z,27.88
2023-02-05T09:02:36.473Z,25.15
2023-02-05T09:05:09.308Z,20.60
2023-02-05T09:07:40.430Z,17.27
2023-02-05T09:10:09.880Z,14.73
2023-02-05T09:12:38.693Z,15.88
2023-02-05T09:15:08.151Z,15.60
2023-02-05T09:17:36.974Z,15.43
2023-02-05T09:20:05.755Z,13.23
2023-02-05T09:22:34.133Z,26.83
2023-02-05T09:25:03.704Z,21.48
2023-02-05T09:27:32.388Z,15.18
2023-02-05T09:30:00.609Z,18.30
2023-02-05T09:32:29.158Z,15.07
2023-02-05T09:34:57.313Z,19.42
2023-02-05T09:37:25.722Z,20.30
2023-02-05T09:42:46.987Z,18.80
2023-02-05T09:45:28.045Z,15.80
2023-02-05T09:48:04.477Z,16.33
2023-02-05T09:50:33.766Z,21.00
2023-02-05T09:53:05.762Z,19.92
2023-02-05T09:55:36.690Z,11.15
2023-02-05T09:58:09.540Z,16.67
2023-02-05T10:00:44.618Z,23.50
2023-02-05T10:03:20.750Z,25.05
2023-02-05T10:06:02.027Z,22.20
2023-02-05T10:08:36.387Z,23.35
2023-02-05T10:11:06.052Z,13.23
2023-02-05T10:13:37.667Z,15.77
2023-02-05T10:16:36.304Z,21.87
2023-02-05T10:19:35.418Z,16.85
2023-02-05T10:22:11.961Z,17.35
2023-02-05T10:24:55.249Z,7.20
2023-02-05T10:27:24.649Z,14.05
2023-02-05T10:30:01.155Z,11.52
2023-02-05T10:32:38.398Z,9.60
2023-02-05T10:35:13.786Z,8.88
2023-02-05T10:37:46.060Z,12.20
2023-02-05T10:40:17.578Z,16.30
2023-02-05T10:42:47.935Z,11.07
2023-02-05T10:45:19.459Z,15.15
2023-02-05T10:48:13.047Z,16.30
2023-02-05T10:50:59.762Z,9.05
2023-02-05T10:53:28.654Z,10.90
2023-02-05T10:55:59.126Z,10.25
2023-02-05T10:58:40.101Z,13.88
2023-02-05T11:01:15.662Z,16.05
2023-02-05T11:03:50.822Z,13.30
2023-02-05T11:06:19.612Z,9.70
2023-02-05T11:08:48.400Z,9.75
2023-02-05T11:11:22.701Z,8.77
2023-02-05T11:13:54.861Z,10.07
2023-02-05T11:16:25.619Z,10.77
2023-02-05T11:18:58.819Z,10.70
2023-02-05T11:21:47.721Z,11.95
2023-02-05T11:24:25.672Z,9.75
2023-02-05T11:27:14.537Z,9.07
2023-02-05T11:29:42.879Z,10.63
2023-02-05T11:32:21.582Z,10.68
2023-02-05T11:34:49.813Z,13.02
2023-02-05T11:37:19.822Z,11.60
2023-02-05T11:39:54.833Z,10.95
2023-02-05T11:42:25.315Z,12.18
2023-02-05T11:44:54.998Z,8.82
2023-02-05T11:47:29.374Z,7.28
2023-02-05T11:49:58.312Z,11.50
2023-02-05T11:52:29.298Z,13.88
2023-02-05T11:54:58.239Z,13.82
2023-02-05T11:57:33.740Z,11.95
2023-02-05T12:00:04.039Z,12.57
2023-02-05T12:02:36.556Z,18.85
2023-02-05T12:05:11.007Z,10.75
2023-02-05T12:07:42.362Z,11.13
2023-02-05T12:10:17.158Z,11.40
2023-02-05T12:12:51.658Z,11.50
2023-02-05T12:15:26.227Z,9.75
2023-02-05T12:18:04.585Z,11.85
2023-02-05T12:20:36.793Z,11.48
2023-02-05T12:23:24.417Z,10.23
2023-02-05T12:26:03.800Z,14.75
2023-02-05T12:28:41.500Z,11.02
2023-02-05T12:31:22.326Z,12.02
2023-02-05T12:34:03.428Z,10.80
2023-02-05T12:36:43.216Z,9.77
2023-02-05T12:39:20.957Z,6.85
2023-02-05T12:41:55.246Z,10.27
2023-02-05T12:44:33.310Z,11.10
2023-02-05T12:47:10.011Z,12.35
2023-02-05T12:49:48.896Z,10.13
2023-02-05T12:52:26.746Z,11.20
2023-02-05T12:55:06.824Z,9.43
2023-02-05T12:57:40.259Z,10.88
2023-02-05T13:00:14.803Z,9.90
2023-02-05T13:02:50.282Z,7.55
2023-02-05T13:05:23.104Z,10.85
2023-02-05T13:07:56.094Z,9.88
2023-02-05T13:10:28.212Z,8.48
2023-02-05T13:13:00.833Z,15.38
2023-02-05T13:15:32.132Z,72.88
2023-02-05T13:18:02.617Z,6.40
2023-02-05T13:20:54.507Z,52.17
2023-02-05T13:23:40.768Z,4.45
2023-02-05T13:26:28.673Z,7.85
2023-02-05T13:28:59.709Z,7.38
2023-02-05T13:31:31.899Z,8.20
2023-02-05T13:34:05.094Z,11.82
2023-02-05T13:37:12.848Z,18.17
2023-02-05T13:40:07.569Z,6.28
2023-02-05T13:42:59.158Z,5.13
2023-02-05T13:45:44.124Z,9.52
2023-02-05T13:48:26.455Z,9.88
2023-02-05T13:51:30.306Z,28.20
2023-02-05T13:54:20.717Z,21.63
2023-02-05T13:56:52.622Z,15.75
2023-02-05T13:59:24.020Z,14.27
2023-02-05T14:01:56.424Z,11.38
2023-02-05T14:04:26.822Z,9.70
2023-02-05T14:07:01.098Z,10.68
2023-02-05T14:09:35.867Z,18.15
2023-02-05T14:12:06.543Z,16.80
2023-02-05T14:14:36.003Z,10.93
2023-02-05T14:17:35.715Z,25.25
2023-02-05T14:20:16.311Z,14.15
2023-02-05T14:22:45.566Z,12.88
2023-02-05T14:26:06.002Z,12.80
2023-02-05T14:28:49.398Z,15.95
2023-02-05T14:31:46.552Z,15.68
2023-02-05T14:34:51.543Z,8.57
2023-02-05T14:37:38.526Z,15.43
2023-02-05T14:40:24.009Z,70.45
2023-02-05T14:42:59.267Z,34.58
2023-02-05T14:45:30.494Z,15.50
2023-02-05T14:47:59.255Z,27.27
2023-02-05T14:50:29.901Z,13.10
2023-02-05T14:53:01.598Z,18.35
2023-02-05T14:55:34.507Z,11.63
2023-02-05T14:58:04.744Z,16.02
2023-02-05T15:00:35.016Z,17.85
2023-02-05T15:03:25.887Z,16.05
2023-02-05T15:05:58.730Z,24.17
2023-02-05T15:08:45.441Z,12.10
2023-02-05T15:11:19.424Z,11.88
2023-02-05T15:14:21.396Z,10.93
2023-02-05T15:16:49.842Z,48.70
2023-02-05T15:19:18.984Z,14.88
2023-02-05T15:21:50.632Z,14.40
2023-02-05T15:24:22.707Z,36.47
2023-02-05T15:26:54.574Z,31.65
2023-02-05T15:31:54.756Z,17.48
2023-02-05T15:34:30.918Z,40.28
2023-02-05T15:37:04.055Z,20.98
2023-02-05T15:39:37.050Z,22.38
2023-02-05T15:44:35.934Z,12.02
2023-02-05T15:47:06.094Z,17.13
2023-02-05T15:49:38.104Z,17.95
2023-02-05T15:52:06.845Z,18.52
2023-02-05T15:54:37.932Z,17.42
2023-02-05T15:57:07.296Z,50.88
2023-02-05T15:59:35.937Z,69.68
2023-02-05T16:02:08.505Z,53.67
2023-02-05T16:04:39.162Z,45.10
2023-02-05T16:07:19.628Z,38.67
2023-02-05T16:09:52.848Z,27.45
2023-02-05T16:12:22.003Z,26.25
2023-02-05T16:14:59.699Z,23.10
2023-02-05T16:17:34.013Z,16.85
2023-02-05T16:20:13.505Z,20.83
2023-02-05T16:22:44.006Z,16.33
2023-02-05T16:25:27.608Z,20.40
2023-02-05T16:27:56.852Z,13.75
2023-02-05T16:30:32.069Z,18.45
2023-02-05T16:33:02.665Z,23.08
2023-02-05T16:35:34.736Z,31.73
2023-02-05T16:38:08.770Z,29.30
2023-02-05T16:40:40.790Z,30.63
2023-02-05T16:43:20.772Z,28.65
2023-02-05T16:46:24.562Z,32.97
2023-02-05T16:48:54.568Z,32.28
2023-02-05T16:51:35.782Z,30.25
2023-02-05T16:54:20.221Z,32.22
2023-02-05T16:56:54.890Z,35.53
2023-02-05T16:59:25.339Z,27.33
2023-02-05T17:01:54.704Z,25.40
2023-02-05T17:04:26.860Z,25.05
2023-02-05T17:06:56.842Z,29.20
2023-02-05T17:09:32.868Z,25.83
2023-02-05T17:12:40.994Z,30.17
2023-02-05T17:15:35.637Z,32.38
2023-02-05T17:18:23.412Z,32.80
2023-02-05T17:20:51.981Z,35.13
2023-02-05T17:23:20.374Z,42.25
2023-02-05T17:25:55.374Z,38.45
2023-02-05T17:28:26.745Z,61.70
2023-02-05T17:30:58.822Z,57.92
2023-02-05T17:35:56.388Z,46.42
2023-02-05T17:38:24.922Z,54.28
2023-02-05T17:41:13.369Z,50.38
2023-02-05T17:43:42.118Z,58.97
2023-02-05T17:46:14.817Z,63.70
2023-02-05T17:48:44.628Z,56.95
2023-02-05T17:51:20.575Z,48.92
2023-02-05T17:53:49.196Z,52.15
2023-02-05T17:56:19.088Z,49.72
2023-02-05T17:58:47.511Z,57.95
2023-02-05T18:01:17.264Z,68.78
2023-02-05T18:03:45.714Z,75.72
2023-02-05T18:06:14.616Z,75.43
2023-02-05T18:08:43.189Z,69.57
2023-02-05T18:11:11.412Z,67.13
2023-02-05T18:13:39.961Z,68.22
2023-02-05T18:16:08.786Z,54.53
2023-02-05T18:18:39.855Z,47.65
2023-02-05T18:21:08.506Z,58.80
2023-02-05T18:23:37.011Z,69.53
2023-02-05T18:26:07.055Z,66.00
2023-02-05T18:28:36.185Z,66.13
2023-02-05T18:31:06.832Z,66.95
2023-02-05T18:33:36.107Z,69.00
2023-02-05T18:36:08.143Z,72.57
2023-02-05T18:41:06.801Z,74.05
2023-02-05T18:43:36.330Z,78.78
2023-02-05T18:46:08.759Z,83.78
2023-02-05T18:48:37.967Z,84.47
2023-02-05T18:51:08.902Z,72.25
2023-02-05T18:53:39.151Z,75.47
2023-02-05T18:56:09.410Z,77.30
2023-02-05T18:58:38.177Z,84.57
2023-02-05T19:01:10.580Z,84.53
2023-02-05T19:03:40.759Z,77.45
2023-02-05T19:06:10.805Z,79.68
2023-02-05T19:08:39.442Z,78.43
2023-02-05T19:11:08.471Z,80.68
2023-02-05T19:13:37.394Z,84.38
2023-02-05T19:16:07.307Z,88.43
2023-02-05T19:18:35.838Z,81.28
2023-02-05T19:21:07.979Z,68.88
2023-02-05T19:23:38.556Z,75.47
2023-02-05T19:26:09.656Z,80.03
2023-02-05T19:28:38.909Z,72.30
2023-02-05T19:31:08.476Z,78.43
2023-02-05T19:33:37.316Z,91.88
2023-02-05T19:36:07.964Z,102.65
2023-02-05T19:38:38.519Z,96.43
2023-02-05T19:41:07.949Z,111.35
2023-02-05T19:43:36.507Z,83.63
2023-02-05T19:46:05.250Z,91.00
2023-02-05T19:48:34.595Z,91.40
2023-02-05T19:51:04.894Z,102.55
2023-02-05T19:53:33.274Z,83.43
2023-02-05T19:56:07.764Z,82.65
2023-02-05T19:58:36.959Z,80.82
2023-02-05T20:01:12.182Z,76.57
2023-02-05T20:03:40.840Z,71.60
2023-02-05T20:06:11.407Z,76.97
2023-02-05T20:08:40.382Z,92.95
2023-02-05T20:11:11.707Z,85.53
2023-02-05T20:13:40.867Z,99.10
2023-02-05T20:16:11.392Z,100.47
2023-02-05T20:18:40.187Z,97.00
2023-02-05T20:21:09.408Z,96.85
2023-02-05T20:23:38.341Z,98.88
2023-02-05T20:26:07.800Z,91.10
2023-02-05T20:28:59.697Z,92.38
2023-02-05T20:31:34.477Z,97.82
2023-02-05T20:34:03.605Z,89.72
2023-02-05T20:36:33.415Z,93.90
2023-02-05T20:39:03.530Z,103.68
2023-02-05T20:41:31.875Z,104.50
2023-02-05T20:44:03.102Z,90.03
2023-02-05T20:46:32.029Z,88.07
2023-02-05T20:49:00.943Z,91.25
2023-02-05T20:51:29.279Z,84.43
2023-02-05T20:53:58.450Z,90.15
2023-02-05T20:56:28.387Z,81.45
2023-02-05T20:58:59.656Z,92.57
2023-02-05T21:01:30.424Z,98.45
2023-02-05T21:04:00.020Z,87.05
2023-02-05T21:06:30.324Z,92.07
2023-02-05T21:08:58.999Z,92.70
2023-02-05T21:11:28.555Z,86.00
2023-02-05T21:13:57.933Z,92.22
2023-02-05T21:16:28.762Z,81.13
2023-02-05T21:18:57.442Z,90.95
2023-02-05T21:21:27.344Z,100.32
2023-02-05T21:23:56.042Z,88.72
2023-02-05T21:26:25.958Z,95.65
2023-02-05T21:28:55.559Z,79.95
2023-02-05T21:31:24.134Z,99.18
2023-02-05T21:33:53.883Z,91.85
2023-02-05T21:36:22.033Z,90.15
2023-02-05T21:38:50.426Z,92.38
2023-02-05T21:41:20.008Z,92.25
2023-02-05T21:43:49.767Z,100.68
2023-02-05T21:46:18.173Z,97.72
2023-02-05T21:48:49.739Z,97.88
2023-02-05T21:51:20.670Z,69.53
2023-02-05T21:53:49.690Z,96.07
2023-02-05T21:56:19.620Z,98.55
2023-02-05T21:58:47.998Z,95.63
2023-02-05T22:01:18.166Z,97.22
2023-02-05T22:03:50.084Z,99.68
2023-02-05T22:06:19.967Z,96.75
2023-02-05T22:08:50.691Z,89.70
2023-02-05T22:11:20.834Z,95.97
2023-02-05T22:13:50.574Z,93.63
2023-02-05T22:16:21.525Z,98.13
2023-02-05T22:18:50.442Z,101.18
2023-02-05T22:21:21.675Z,97.20
2023-02-05T22:23:51.539Z,99.18
2023-02-05T22:26:22.115Z,98.68
2023-02-05T22:28:50.580Z,100.50
2023-02-05T22:31:21.082Z,113.97
2023-02-05T22:33:50.786Z,100.30
2023-02-05T22:36:22.486Z,110.80
2023-02-05T22:38:51.918Z,113.40
2023-02-05T22:41:22.628Z,106.43
2023-02-05T22:43:51.058Z,118.45
2023-02-05T22:46:21.230Z,114.18
2023-02-05T22:48:50.826Z,118.80
2023-02-05T22:51:22.701Z,124.22
2023-02-05T22:53:51.101Z,129.68
2023-02-05T22:56:19.656Z,117.43
2023-02-05T22:58:48.879Z,115.07
2023-02-05T23:01:19.448Z,127.63
2023-02-05T23:03:49.299Z,124.05
2023-02-05T23:06:22.684Z,122.90
2023-02-05T23:08:52.208Z,123.93
2023-02-05T23:11:21.373Z,120.88
2023-02-05T23:13:49.877Z,132.38
2023-02-05T23:16:20.388Z,129.32
2023-02-05T23:18:48.907Z,131.55
2023-02-05T23:21:19.601Z,137.43
2023-02-05T23:23:49.519Z,139.23
2023-02-05T23:26:20.607Z,151.73
2023-02-05T23:28:49.091Z,127.85
2023-02-05T23:31:18.208Z,128.45
2023-02-05T23:33:46.501Z,147.30
2023-02-05T23:36:15.182Z,129.38
2023-02-05T23:38:43.583Z,128.25
2023-02-05T23:41:13.422Z,142.02
2023-02-05T23:43:42.070Z,138.15
2023-02-05T23:46:10.554Z,145.05
2023-02-05T23:48:38.840Z,132.48
2023-02-05T23:51:07.226Z,141.57
2023-02-05T23:53:35.389Z,133.48
2023-02-05T23:56:03.759Z,141.55
2023-02-05T23:58:33.433Z,138.52
